Time;durP1;ratioP1;P1;durP2;ratioP2;P2;SDS_P1;SDS_P2;PMS_P1;PMS_P2;Temp;Humidity;BMP_temperature;BMP_pressure;BME280_temperature;BME280_humidity;BME280_pressure;Samples;Min_cycle;Max_cycle;Signal;HPM_P1;HPM_P2
2023/08/14 00:00:12;;;;;;;;;;;;;;;24.50;47.52;101268.81;7397841;19;1748;-47
2023/08/14 00:02:43;;;;;;;;;;;;;;;24.56;48.02;101264.59;7398445;19;1586;-47
2023/08/14 00:05:11;;;;;;;;;;;;;;;24.61;47.68;101263.13;7397335;19;1677;-47
2023/08/14 00:07:39;;;;;;;;;;;;;;;24.65;49.18;101254.69;7397409;19;1571;-48
2023/08/14 00:10:08;;;;;;;;;;;;;;;24.66;48.24;101257.22;7396600;19;1500;-47
2023/08/14 00:12:36;;;;;;;;;;;;;;;24.63;49.02;101251.28;7396529;19;1406;-49
2023/08/14 00:15:05;;;;;;;;;;;;;;;24.59;48.72;101254.34;7394824;19;1835;-48
2023/08/14 00:17:33;;;;;;;;;;;;;;;24.57;48.58;101256.34;7396298;19;1567;-48
2023/08/14 00:20:04;;;;;;;;;;;;;;;24.61;48.79;101252.31;7394195;19;1368;-47
2023/08/14 00:22:32;;;;;;;;;;;;;;;24.63;47.86;101249.44;7395935;19;1907;-48
2023/08/14 00:25:00;;;;;;;;;;;;;;;24.51;48.04;101246.19;7396183;19;1124;-47
2023/08/14 00:27:29;;;;;;;;;;;;;;;24.63;47.86;101256.69;7396436;19;1387;-48
2023/08/14 00:29:57;;;;;;;;;;;;;;;24.63;48.64;101245.88;7396917;19;1486;-47
2023/08/14 00:32:25;;;;;;;;;;;;;;;24.57;48.98;101248.22;7396617;19;1286;-47
2023/08/14 00:34:54;;;;;;;;;;;;;;;24.53;48.22;101249.56;7394292;19;1861;-48
2023/08/14 00:37:41;;;;;;;;;;;;;;;24.58;47.54;101246.38;7396297;19;1447;-49
2023/08/14 00:40:10;;;;;;;;;;;;;;;24.48;47.32;101238.34;7395029;19;1986;-48
2023/08/14 00:42:39;;;;;;;;;;;;;;;24.47;47.33;101244.78;7396770;19;1574;-47
2023/08/14 00:45:08;;;;;;;;;;;;;;;24.48;47.07;101232.94;7396997;19;1524;-48
2023/08/14 00:47:37;;;;;;;;;;;;;;;24.41;47.60;101239.97;7395169;19;1377;-47
2023/08/14 00:50:05;;;;;;;;;;;;;;;24.49;47.15;101250.00;7394662;19;1514;-48
2023/08/14 00:52:37;;;;;;;;;;;;;;;24.51;47.77;101253.41;7394229;19;1692;-48
2023/08/14 00:55:07;;;;;;;;;;;;;;;24.46;48.15;101244.94;7393144;19;1933;-48
2023/08/14 00:57:37;;;;;;;;;;;;;;;24.40;48.78;101235.59;7394718;19;1314;-47
2023/08/14 01:00:07;;;;;;;;;;;;;;;24.46;48.45;101250.34;7397474;19;966;-48
2023/08/14 01:02:36;;;;;;;;;;;;;;;24.48;47.89;101251.00;7396405;19;1705;-49
2023/08/14 01:05:04;;;;;;;;;;;;;;;24.52;47.39;101245.16;7395105;19;1793;-48
2023/08/14 01:07:32;;;;;;;;;;;;;;;24.47;47.37;101250.19;7394331;19;1668;-47
2023/08/14 01:10:04;;;;;;;;;;;;;;;24.36;47.07;101247.72;7395997;19;1636;-49
2023/08/14 01:12:38;;;;;;;;;;;;;;;24.41;47.32;101259.78;7395157;19;1487;-49
2023/08/14 01:15:10;;;;;;;;;;;;;;;24.28;47.29;101253.94;7393380;19;1906;-47
2023/08/14 01:17:41;;;;;;;;;;;;;;;24.41;47.50;101248.97;7394323;19;1250;-47
2023/08/14 01:20:10;;;;;;;;;;;;;;;24.40;47.14;101257.22;7394675;19;1423;-48
2023/08/14 01:22:44;;;;;;;;;;;;;;;24.28;47.49;101247.69;7393746;19;1258;-48
2023/08/14 01:25:28;;;;;;;;;;;;;;;24.33;47.56;101246.22;7396060;19;1476;-48
2023/08/14 01:27:57;;;;;;;;;;;;;;;24.33;47.46;101253.44;7395312;19;1394;-47
2023/08/14 01:30:26;;;;;;;;;;;;;;;24.29;47.63;101250.25;7395548;19;1591;-47
2023/08/14 01:32:55;;;;;;;;;;;;;;;23.79;47.84;101162.56;7396821;19;1054;-48
2023/08/14 01:35:24;;;;;;;;;;;;;;;24.35;47.86;101249.59;7393866;19;1841;-48
2023/08/14 01:37:56;;;;;;;;;;;;;;;24.30;47.97;101256.47;7394529;19;1520;-47
2023/08/14 01:40:31;;;;;;;;;;;;;;;24.29;48.13;101271.00;7394505;19;1412;-47
2023/08/14 01:43:01;;;;;;;;;;;;;;;24.33;47.48;101251.63;7394577;19;1820;-49
2023/08/14 01:45:31;;;;;;;;;;;;;;;24.30;48.54;101272.69;7395316;19;1390;-48
2023/08/14 01:48:02;;;;;;;;;;;;;;;24.32;48.13;101276.09;7394556;19;1583;-47
2023/08/14 01:50:31;;;;;;;;;;;;;;;24.35;47.99;101259.53;7395162;19;1582;-47
2023/08/14 01:53:00;;;;;;;;;;;;;;;24.34;47.56;101255.16;7392396;19;1445;-48
2023/08/14 01:55:31;;;;;;;;;;;;;;;24.28;47.33;101270.16;7392538;19;1868;-47
2023/08/14 01:57:59;;;;;;;;;;;;;;;24.22;47.37;101266.22;7394833;19;1064;-47
2023/08/14 02:00:31;;;;;;;;;;;;;;;24.24;47.08;101278.75;7392817;19;1705;-48
2023/08/14 02:03:00;;;;;;;;;;;;;;;24.20;47.27;101273.63;7395077;19;1725;-48
2023/08/14 02:05:28;;;;;;;;;;;;;;;24.19;47.31;101265.69;7394027;19;1786;-47
2023/08/14 02:07:57;;;;;;;;;;;;;;;24.10;47.83;101272.88;7396305;19;1374;-46
2023/08/14 02:10:25;;;;;;;;;;;;;;;24.13;47.66;101250.97;7401136;19;1462;-46
2023/08/14 02:12:56;;;;;;;;;;;;;;;24.22;47.96;101259.97;7401356;19;1231;-47
2023/08/14 02:15:24;;;;;;;;;;;;;;;24.26;47.29;101255.09;7399315;19;1849;-46
2023/08/14 02:17:53;;;;;;;;;;;;;;;24.23;47.16;101258.94;7400091;19;1374;-46
2023/08/14 02:20:21;;;;;;;;;;;;;;;24.19;47.01;101280.06;7402076;19;1567;-47
2023/08/14 02:22:49;;;;;;;;;;;;;;;24.14;47.32;101273.44;7400100;19;1355;-47
2023/08/14 02:25:18;;;;;;;;;;;;;;;24.09;47.07;101265.78;7401567;19;1587;-46
2023/08/14 02:27:46;;;;;;;;;;;;;;;24.10;47.26;101278.28;7401302;19;1519;-46
2023/08/14 02:30:17;;;;;;;;;;;;;;;23.99;47.95;101286.63;7402368;19;1043;-46
2023/08/14 02:32:45;;;;;;;;;;;;;;;24.09;47.51;101284.69;7399687;19;1105;-46
2023/08/14 02:35:13;;;;;;;;;;;;;;;24.07;47.50;101283.16;7397171;19;1842;-46
2023/08/14 02:37:42;;;;;;;;;;;;;;;24.01;47.27;101285.50;7399224;19;1840;-46
2023/08/14 02:40:10;;;;;;;;;;;;;;;23.99;47.63;101295.59;7401276;19;1471;-46
2023/08/14 02:42:38;;;;;;;;;;;;;;;24.05;47.23;101282.47;7400363;19;1386;-46
2023/08/14 02:45:07;;;;;;;;;;;;;;;23.90;47.76;101285.72;7399819;19;1575;-46
2023/08/14 02:47:38;;;;;;;;;;;;;;;24.04;47.79;101281.63;7397227;19;2089;-46
2023/08/14 02:50:07;;;;;;;;;;;;;;;24.04;47.58;101288.88;7398456;19;1374;-46
2023/08/14 02:52:35;;;;;;;;;;;;;;;24.03;47.73;101288.00;7399843;19;1296;-46
2023/08/14 02:55:04;;;;;;;;;;;;;;;24.10;47.10;101278.28;7399300;19;1859;-47
2023/08/14 02:57:32;;;;;;;;;;;;;;;24.06;47.31;101281.47;7399398;19;1059;-46
2023/08/14 03:00:01;;;;;;;;;;;;;;;23.98;47.39;101287.66;7400141;19;1788;-47
2023/08/14 03:02:29;;;;;;;;;;;;;;;24.01;47.32;101290.03;7399306;19;1716;-47
2023/08/14 03:05:00;;;;;;;;;;;;;;;23.96;47.52;101286.97;7398923;19;1152;-47
2023/08/14 03:07:28;;;;;;;;;;;;;;;24.02;47.38;101286.34;7398498;19;1422;-47
2023/08/14 03:09:56;;;;;;;;;;;;;;;24.09;47.16;101297.34;7399060;19;1412;-47
2023/08/14 03:12:25;;;;;;;;;;;;;;;24.01;47.54;101301.69;7395489;19;2104;-47
2023/08/14 03:14:53;;;;;;;;;;;;;;;24.07;47.02;101296.66;7399057;19;1853;-46
2023/08/14 03:17:21;;;;;;;;;;;;;;;24.06;46.93;101298.53;7400411;19;1586;-47
2023/08/14 03:19:49;;;;;;;;;;;;;;;24.03;46.84;101296.13;7397608;19;1488;-46
2023/08/14 03:22:20;;;;;;;;;;;;;;;23.98;46.58;101299.28;7398990;19;1319;-47
2023/08/14 03:24:49;;;;;;;;;;;;;;;23.90;46.84;101293.00;7400891;19;996;-48
2023/08/14 03:27:17;;;;;;;;;;;;;;;23.87;46.50;101304.09;7396095;19;1622;-49
2023/08/14 03:29:45;;;;;;;;;;;;;;;23.84;47.02;101299.00;7398699;19;1565;-47
2023/08/14 03:32:13;;;;;;;;;;;;;;;23.87;47.31;101306.78;7400139;19;968;-47
2023/08/14 03:34:42;;;;;;;;;;;;;;;23.82;47.17;101307.25;7396525;19;1853;-48
2023/08/14 03:37:10;;;;;;;;;;;;;;;23.85;46.92;101311.50;7397253;19;1320;-47
2023/08/14 03:39:41;;;;;;;;;;;;;;;23.81;47.17;101311.81;7397472;19;1289;-46
2023/08/14 03:42:09;;;;;;;;;;;;;;;23.77;47.42;101315.81;7397451;19;1410;-48
2023/08/14 03:44:38;;;;;;;;;;;;;;;23.75;47.51;101317.78;7397501;19;1481;-48
2023/08/14 03:47:09;;;;;;;;;;;;;;;23.79;47.44;101335.41;7397367;19;1414;-48
2023/08/14 03:49:37;;;;;;;;;;;;;;;23.76;47.28;101330.28;7397666;19;1680;-47
2023/08/14 03:52:05;;;;;;;;;;;;;;;23.81;47.49;101310.94;7397056;19;1343;-48
2023/08/14 03:54:34;;;;;;;;;;;;;;;23.79;47.54;101305.69;7398156;19;1884;-47
2023/08/14 03:57:05;;;;;;;;;;;;;;;23.82;47.36;101318.91;7396076;19;1595;-47
2023/08/14 03:59:33;;;;;;;;;;;;;;;23.89;47.22;101321.00;7397505;19;1468;-46
2023/08/14 04:02:01;;;;;;;;;;;;;;;23.82;47.21;101315.38;7397303;19;1586;-46
2023/08/14 04:04:29;;;;;;;;;;;;;;;23.76;47.62;101324.91;7396820;19;1645;-47
2023/08/14 04:06:58;;;;;;;;;;;;;;;23.77;47.46;101323.91;7397560;19;1318;-48
2023/08/14 04:09:27;;;;;;;;;;;;;;;23.74;47.85;101344.97;7395900;19;1276;-47
2023/08/14 04:11:55;;;;;;;;;;;;;;;23.72;48.06;101345.09;7394550;19;1939;-47
2023/08/14 04:14:26;;;;;;;;;;;;;;;23.82;47.69;101334.28;7396808;19;1857;-48
2023/08/14 04:16:54;;;;;;;;;;;;;;;23.94;47.27;101348.41;7397185;19;1266;-47
2023/08/14 04:19:22;;;;;;;;;;;;;;;23.95;47.11;101336.56;7398011;19;1224;-48
2023/08/14 04:21:51;;;;;;;;;;;;;;;23.98;47.11;101333.56;7396747;19;1515;-47
2023/08/14 04:24:19;;;;;;;;;;;;;;;24.01;46.97;101333.25;7397306;19;1287;-46
2023/08/14 04:26:47;;;;;;;;;;;;;;;24.11;46.99;101327.78;7397657;19;1380;-47
2023/08/14 04:29:16;;;;;;;;;;;;;;;24.20;46.71;101338.50;7396769;19;1456;-47
2023/08/14 04:31:47;;;;;;;;;;;;;;;24.29;46.59;101341.25;7393247;19;1388;-47
2023/08/14 04:34:15;;;;;;;;;;;;;;;24.34;46.27;101339.78;7396332;19;1424;-47
2023/08/14 04:36:44;;;;;;;;;;;;;;;24.51;46.02;101343.50;7395009;19;1293;-48
2023/08/14 04:39:12;;;;;;;;;;;;;;;24.48;46.19;101351.88;7393147;19;1479;-47
2023/08/14 04:41:40;;;;;;;;;;;;;;;24.64;46.12;101343.06;7394624;19;1271;-47
2023/08/14 04:44:08;;;;;;;;;;;;;;;24.50;46.49;101339.09;7395609;19;1420;-47
2023/08/14 04:46:37;;;;;;;;;;;;;;;24.59;45.89;101358.91;7392401;19;1165;-47
2023/08/14 04:49:08;;;;;;;;;;;;;;;24.60;46.43;101353.34;7393736;19;1332;-47
2023/08/14 04:51:36;;;;;;;;;;;;;;;24.57;47.02;101353.69;7390916;19;1583;-47
2023/08/14 04:54:05;;;;;;;;;;;;;;;24.64;46.16;101356.59;7389617;19;1430;-48
2023/08/14 04:56:33;;;;;;;;;;;;;;;24.40;46.78;101360.78;7389799;19;1849;-46
2023/08/14 04:59:02;;;;;;;;;;;;;;;24.55;46.66;101353.00;7393003;19;1250;-46
2023/08/14 05:01:30;;;;;;;;;;;;;;;24.64;46.47;101350.34;7392578;19;1325;-46
2023/08/14 05:03:58;;;;;;;;;;;;;;;24.58;46.33;101352.66;7393443;19;1246;-46
2023/08/14 05:06:29;;;;;;;;;;;;;;;24.51;46.37;101354.31;7394433;19;1494;-46
2023/08/14 05:08:57;;;;;;;;;;;;;;;24.41;46.96;101361.63;7394785;19;1368;-46
2023/08/14 05:11:26;;;;;;;;;;;;;;;24.10;47.70;101363.91;7394743;19;1212;-45
2023/08/14 05:13:54;;;;;;;;;;;;;;;24.01;48.00;101366.53;7390742;19;1399;-46
2023/08/14 05:16:23;;;;;;;;;;;;;;;24.08;47.80;101361.34;7390024;19;1877;-46
2023/08/14 05:18:51;;;;;;;;;;;;;;;24.19;47.53;101363.84;7394062;19;1396;-46
2023/08/14 05:21:19;;;;;;;;;;;;;;;24.28;47.52;101372.84;7396401;19;1270;-46
2023/08/14 05:23:50;;;;;;;;;;;;;;;24.27;47.71;101375.69;7393809;19;1277;-46
2023/08/14 05:26:18;;;;;;;;;;;;;;;24.27;48.33;101370.28;7394736;19;1395;-46
2023/08/14 05:28:47;;;;;;;;;;;;;;;24.28;48.19;101369.31;7394783;19;1494;-46
2023/08/14 05:31:15;;;;;;;;;;;;;;;24.31;48.60;101356.34;7390689;19;1500;-49
2023/08/14 05:33:43;;;;;;;;;;;;;;;24.41;48.78;101367.03;7392744;19;1321;-49
2023/08/14 05:36:12;;;;;;;;;;;;;;;24.48;48.67;101368.13;7392231;19;1845;-49
2023/08/14 05:38:40;;;;;;;;;;;;;;;24.54;48.49;101372.06;7393451;19;1486;-49
2023/08/14 05:41:11;;;;;;;;;;;;;;;24.59;48.57;101365.19;7392168;19;1155;-49
2023/08/14 05:43:39;;;;;;;;;;;;;;;24.51;49.00;101373.25;7400018;19;1339;-49
2023/08/14 05:46:07;;;;;;;;;;;;;;;24.55;49.40;101369.22;7401201;19;1143;-49
2023/08/14 05:48:35;;;;;;;;;;;;;;;24.28;49.96;101377.41;7400838;19;1364;-49
2023/08/14 05:51:04;;;;;;;;;;;;;;;24.28;50.01;101372.84;7399542;19;1101;-49
2023/08/14 05:53:32;;;;;;;;;;;;;;;24.42;50.21;101384.97;7399913;19;1412;-50
2023/08/14 05:56:00;;;;;;;;;;;;;;;24.44;50.21;101366.72;7396947;19;1859;-49
2023/08/14 05:58:31;;;;;;;;;;;;;;;24.35;50.59;101382.03;7397443;19;1464;-49
2023/08/14 06:00:59;;;;;;;;;;;;;;;24.35;50.89;101371.22;7400037;19;1325;-49
2023/08/14 06:03:28;;;;;;;;;;;;;;;24.53;50.71;101368.53;7400960;19;1147;-49
2023/08/14 06:05:56;;;;;;;;;;;;;;;24.81;50.17;101380.06;7400688;19;1086;-50
2023/08/14 06:08:24;;;;;;;;;;;;;;;24.86;50.60;101359.78;7401378;19;1360;-49
2023/08/14 06:10:52;;;;;;;;;;;;;;;25.06;50.43;101382.03;7401183;19;1353;-49
2023/08/14 06:13:21;;;;;;;;;;;;;;;25.09;50.21;101377.16;7400352;19;1156;-49
2023/08/14 06:15:51;;;;;;;;;;;;;;;25.07;50.19;101362.94;7399657;19;1845;-49
2023/08/14 06:18:20;;;;;;;;;;;;;;;25.17;50.07;101369.09;7400676;19;1418;-49
2023/08/14 06:20:48;;;;;;;;;;;;;;;25.13;50.03;101366.88;7399095;19;1495;-49
2023/08/14 06:23:16;;;;;;;;;;;;;;;25.30;50.04;101357.81;6883846;19;9999834;-50
2023/08/14 06:25:45;;;;;;;;;;;;;;;25.48;49.75;101365.84;7388962;19;1592;-47
2023/08/14 06:28:13;;;;;;;;;;;;;;;25.52;49.52;101360.97;7389354;19;1614;-47
2023/08/14 06:30:41;;;;;;;;;;;;;;;25.41;49.85;101367.53;7390648;19;1485;-47
2023/08/14 06:33:12;;;;;;;;;;;;;;;25.38;49.74;101365.13;7393049;19;1192;-47
2023/08/14 06:35:40;;;;;;;;;;;;;;;25.48;49.67;101375.84;7391387;19;1857;-46
2023/08/14 06:38:08;;;;;;;;;;;;;;;25.64;49.00;101375.03;7391853;19;1407;-46
2023/08/14 06:40:37;;;;;;;;;;;;;;;25.57;49.06;101388.41;7392357;19;1511;-46
2023/08/14 06:43:06;;;;;;;;;;;;;;;25.53;49.27;101373.50;7393291;19;1382;-46
2023/08/14 06:45:34;;;;;;;;;;;;;;;25.57;48.64;101364.88;7393470;19;1377;-47
2023/08/14 06:48:02;;;;;;;;;;;;;;;25.67;48.45;101369.31;7388022;19;1350;-47
2023/08/14 06:50:33;;;;;;;;;;;;;;;25.68;47.93;101381.81;7390224;19;1361;-47
2023/08/14 06:53:02;;;;;;;;;;;;;;;25.54;48.74;101375.19;7391005;19;1619;-47
2023/08/14 06:55:30;;;;;;;;;;;;;;;25.59;48.44;101383.66;7390080;19;1862;-48
2023/08/14 06:57:58;;;;;;;;;;;;;;;25.55;48.12;101366.06;7393170;19;1462;-47
2023/08/14 07:00:26;;;;;;;;;;;;;;;25.61;47.49;101376.22;7391706;19;1548;-46
2023/08/14 07:02:55;;;;;;;;;;;;;;;25.69;47.69;101367.28;7390824;19;1623;-48
2023/08/14 07:05:23;;;;;;;;;;;;;;;25.68;47.61;101379.94;7394630;19;1139;-46
2023/08/14 07:07:54;;;;;;;;;;;;;;;25.72;47.32;101367.78;7393265;19;1905;-47
2023/08/14 07:10:22;;;;;;;;;;;;;;;25.72;47.64;101373.19;7393504;19;1830;-47
2023/08/14 07:12:51;;;;;;;;;;;;;;;25.74;47.68;101384.72;7391410;19;1378;-47
2023/08/14 07:15:19;;;;;;;;;;;;;;;25.77;47.49;101368.13;7395482;19;1896;-46
2023/08/14 07:17:47;;;;;;;;;;;;;;;25.89;47.13;101378.66;7395328;19;1506;-46
2023/08/14 07:20:16;;;;;;;;;;;;;;;25.93;47.14;101367.34;7396285;19;1339;-47
2023/08/14 07:22:44;;;;;;;;;;;;;;;26.01;47.24;101374.66;7397187;19;1471;-46
2023/08/14 07:25:15;;;;;;;;;;;;;;;26.03;47.41;101369.06;7395519;19;1390;-47
2023/08/14 07:27:43;;;;;;;;;;;;;;;25.94;48.51;101357.34;7391313;19;1367;-47
2023/08/14 07:30:12;;;;;;;;;;;;;;;26.03;47.83;101363.66;7394153;19;1339;-46
2023/08/14 07:32:41;;;;;;;;;;;;;;;26.04;47.93;101366.16;7391081;19;1323;-46
2023/08/14 07:35:09;;;;;;;;;;;;;;;26.08;47.66;101367.53;7393189;19;1360;-47
2023/08/14 07:37:38;;;;;;;;;;;;;;;26.12;48.35;101358.06;7391221;19;1866;-47
2023/08/14 07:40:07;;;;;;;;;;;;;;;26.15;48.06;101365.84;7391275;19;1275;-46
2023/08/14 07:42:37;;;;;;;;;;;;;;;26.19;47.37;101359.06;7389956;19;1441;-46
2023/08/14 07:45:06;;;;;;;;;;;;;;;26.24;46.50;101350.41;7390913;19;1407;-46
2023/08/14 07:47:34;;;;;;;;;;;;;;;26.16;46.56;101348.59;7387793;19;1411;-46
2023/08/14 07:50:03;;;;;;;;;;;;;;;26.14;46.64;101361.47;7384332;19;1455;-49
2023/08/14 07:52:31;;;;;;;;;;;;;;;26.04;49.35;101363.47;7387858;19;1319;-49
2023/08/14 07:54:59;;;;;;;;;;;;;;;26.04;48.67;101355.31;7391699;19;1010;-49
2023/08/14 07:57:28;;;;;;;;;;;;;;;26.14;47.98;101353.31;7389604;19;1818;-49
2023/08/14 07:59:59;;;;;;;;;;;;;;;26.14;48.30;101360.59;7390484;19;1475;-49
2023/08/14 08:02:27;;;;;;;;;;;;;;;26.10;49.38;101359.22;7390254;19;1065;-49
2023/08/14 08:04:55;;;;;;;;;;;;;;;26.09;49.11;101366.53;7389584;19;1471;-49
2023/08/14 08:07:23;;;;;;;;;;;;;;;26.01;51.67;101352.13;7387893;19;1356;-49
2023/08/14 08:09:52;;;;;;;;;;;;;;;25.93;51.15;101352.97;7388981;19;1858;-50
2023/08/14 08:12:20;;;;;;;;;;;;;;;25.89;51.63;101357.00;7390083;19;1462;-50
2023/08/14 08:14:48;;;;;;;;;;;;;;;25.89;51.39;101348.88;7385327;19;1128;-50
2023/08/14 08:17:19;;;;;;;;;;;;;;;25.88;51.53;101349.88;7385846;19;1859;-47
2023/08/14 08:19:48;;;;;;;;;;;;;;;25.76;53.45;101361.00;6862884;19;10000513;-47
2023/08/14 08:22:16;;;;;;;;;;;;;;;25.71;53.07;101360.69;7380486;19;1567;-47
2023/08/14 08:24:44;;;;;;;;;;;;;;;25.65;52.67;101345.09;7382018;19;1545;-47
2023/08/14 08:27:13;;;;;;;;;;;;;;;25.60;52.83;101339.31;7382150;19;1480;-46
2023/08/14 08:29:41;;;;;;;;;;;;;;;25.60;52.66;101334.75;7384182;19;1564;-47
2023/08/14 08:32:09;;;;;;;;;;;;;;;25.58;53.03;101331.34;7381693;19;1433;-47
2023/08/14 08:34:40;;;;;;;;;;;;;;;25.61;53.56;101338.31;7383419;19;1383;-46
2023/08/14 08:37:08;;;;;;;;;;;;;;;25.64;53.47;101332.53;7385062;19;1835;-47
2023/08/14 08:39:37;;;;;;;;;;;;;;;25.58;53.56;101346.75;7385697;19;1595;-46
2023/08/14 08:42:05;;;;;;;;;;;;;;;25.52;53.92;101336.59;7388859;19;1319;-47
2023/08/14 08:44:35;;;;;;;;;;;;;;;25.49;54.53;101331.50;7389714;19;1080;-47
2023/08/14 08:47:05;;;;;;;;;;;;;;;25.47;54.50;101337.09;7388632;19;1460;-46
2023/08/14 08:49:34;;;;;;;;;;;;;;;25.46;54.72;101331.81;7389112;19;1503;-46
2023/08/14 08:52:05;;;;;;;;;;;;;;;25.42;54.51;101327.75;7387668;19;1472;-47
2023/08/14 08:54:33;;;;;;;;;;;;;;;25.42;54.90;101322.34;7387802;19;1673;-47
2023/08/14 08:57:02;;;;;;;;;;;;;;;25.40;54.45;101320.63;7387216;19;1865;-47
2023/08/14 08:59:30;;;;;;;;;;;;;;;25.37;54.69;101307.44;7387657;19;1959;-46
2023/08/14 09:01:59;;;;;;;;;;;;;;;25.42;54.79;101319.63;7388801;19;1425;-46
2023/08/14 09:04:27;;;;;;;;;;;;;;;25.44;54.65;101312.19;7387769;19;1782;-47
2023/08/14 09:06:55;;;;;;;;;;;;;;;25.43;54.68;101307.78;7386294;19;1564;-47
2023/08/14 09:09:26;;;;;;;;;;;;;;;25.46;54.91;101323.69;7388246;19;1553;-47
2023/08/14 09:11:55;;;;;;;;;;;;;;;25.44;54.73;101314.91;7386339;19;1405;-47
2023/08/14 09:14:24;;;;;;;;;;;;;;;25.43;55.09;101318.59;7387771;19;1418;-46
2023/08/14 09:16:54;;;;;;;;;;;;;;;25.42;54.99;101300.69;7388954;19;1843;-47
2023/08/14 09:19:23;;;;;;;;;;;;;;;25.44;54.81;101310.31;7391489;19;2315;-47
2023/08/14 09:21:51;;;;;;;;;;;;;;;25.36;55.25;101300.31;7393658;19;1665;-47
2023/08/14 09:24:21;;;;;;;;;;;;;;;25.37;55.25;101304.72;7394157;19;1421;-47
2023/08/14 09:26:52;;;;;;;;;;;;;;;25.39;55.21;101332.50;7392994;19;1379;-47
2023/08/14 09:29:20;;;;;;;;;;;;;;;25.37;55.45;101296.59;7394860;19;1488;-46
2023/08/14 09:31:48;;;;;;;;;;;;;;;25.38;55.20;101281.19;7392760;19;1400;-47
2023/08/14 09:34:20;;;;;;;;;;;;;;;25.42;55.17;101297.97;7394468;19;1726;-47
2023/08/14 09:36:49;;;;;;;;;;;;;;;25.40;55.51;101293.56;7393161;19;1851;-47
2023/08/14 09:39:17;;;;;;;;;;;;;;;25.38;55.31;101298.28;7394650;19;1541;-47
2023/08/14 09:41:48;;;;;;;;;;;;;;;25.42;55.24;101279.84;7394285;19;1497;-46
2023/08/14 09:44:20;;;;;;;;;;;;;;;25.38;55.26;101282.03;7392971;19;1549;-47
2023/08/14 09:46:51;;;;;;;;;;;;;;;25.39;55.47;101272.91;7394844;19;1442;-47
2023/08/14 09:49:20;;;;;;;;;;;;;;;25.38;55.48;101273.91;7394933;19;1496;-46
2023/08/14 09:51:55;;;;;;;;;;;;;;;25.38;55.51;101265.81;7394476;19;1732;-47
2023/08/14 09:54:31;;;;;;;;;;;;;;;25.38;55.62;101264.97;7393774;19;1403;-47
2023/08/14 09:57:03;;;;;;;;;;;;;;;25.36;55.67;101270.53;7380446;19;1873;-46
2023/08/14 09:59:35;;;;;;;;;;;;;;;25.35;55.54;101257.19;7393294;19;1496;-46
2023/08/14 10:02:03;;;;;;;;;;;;;;;25.40;55.52;101254.81;7392781;19;1492;-46
2023/08/14 10:04:33;;;;;;;;;;;;;;;25.46;55.25;101256.84;7393663;19;1353;-48
2023/08/14 10:07:02;;;;;;;;;;;;;;;25.39;55.73;101239.59;7392722;19;1718;-47
2023/08/14 10:09:33;;;;;;;;;;;;;;;25.48;55.47;101251.28;7390748;19;1529;-47
2023/08/14 10:12:05;;;;;;;;;;;;;;;25.50;55.23;101241.13;7392460;19;1520;-47
2023/08/14 10:14:37;;;;;;;;;;;;;;;25.48;55.17;101248.56;7393321;19;1600;-46
2023/08/14 10:17:06;;;;;;;;;;;;;;;25.45;55.64;101247.06;7391912;19;1854;-47
2023/08/14 10:19:36;;;;;;;;;;;;;;;25.44;55.51;101255.34;7390254;19;2245;-46
2023/08/14 10:22:06;;;;;;;;;;;;;;;25.42;55.81;101241.13;7394065;19;1551;-47
2023/08/14 10:24:37;;;;;;;;;;;;;;;25.44;55.71;101236.38;7387942;19;1424;-47
2023/08/14 10:27:06;;;;;;;;;;;;;;;25.37;56.05;101223.50;7394123;19;1385;-47
2023/08/14 10:29:37;;;;;;;;;;;;;;;25.44;56.03;101233.66;7393076;19;1397;-47
2023/08/14 10:32:06;;;;;;;;;;;;;;;25.38;55.90;101208.94;7393141;19;1411;-47
2023/08/14 10:34:35;;;;;;;;;;;;;;;25.41;55.95;101218.63;7393075;19;1446;-48
2023/08/14 10:37:03;;;;;;;;;;;;;;;25.39;56.02;101221.47;7391536;19;1848;-47
2023/08/14 10:39:35;;;;;;;;;;;;;;;25.36;56.06;101227.22;7393165;19;1490;-47
2023/08/14 10:42:05;;;;;;;;;;;;;;;25.36;55.99;101232.63;7392405;19;1403;-46
2023/08/14 10:44:35;;;;;;;;;;;;;;;25.38;56.05;101230.59;7394121;19;1363;-47
2023/08/14 10:47:14;;;;;;;;;;;;;;;25.42;56.14;101241.94;7393100;19;1583;-49
2023/08/14 10:49:46;;;;;;;;;;;;;;;25.35;56.25;101213.88;7391903;19;1456;-47
2023/08/14 10:52:19;;;;;;;;;;;;;;;25.37;56.25;101247.03;7391981;19;1528;-46
2023/08/14 10:54:52;;;;;;;;;;;;;;;25.35;56.24;101220.13;7393710;19;1548;-47
2023/08/14 10:57:20;;;;;;;;;;;;;;;25.38;56.04;101214.34;7391116;19;1833;-47
2023/08/14 10:59:57;;;;;;;;;;;;;;;25.38;56.33;101213.53;7388164;19;1498;-46
2023/08/14 11:02:29;;;;;;;;;;;;;;;25.35;56.26;101201.19;7392401;19;1204;-47
2023/08/14 11:05:01;;;;;;;;;;;;;;;25.37;56.54;101203.72;7391775;19;1628;-47
2023/08/14 11:07:30;;;;;;;;;;;;;;;25.34;56.19;101207.59;7390151;19;1532;-47
2023/08/14 11:09:59;;;;;;;;;;;;;;;25.41;56.21;101205.06;7391734;19;1548;-47
2023/08/14 11:12:27;;;;;;;;;;;;;;;25.46;56.29;101209.97;7392460;19;1632;-44
2023/08/14 11:14:57;;;;;;;;;;;;;;;25.48;55.97;101202.53;7393068;19;1370;-46
2023/08/14 11:17:28;;;;;;;;;;;;;;;25.62;56.38;101196.44;7391301;19;1847;-46
2023/08/14 11:19:56;;;;;;;;;;;;;;;25.69;57.06;101196.63;7388586;19;2179;-47
2023/08/14 11:22:25;;;;;;;;;;;;;;;25.85;56.06;101193.06;7389234;19;1528;-46
2023/08/14 11:24:53;;;;;;;;;;;;;;;25.82;55.73;101177.97;7392777;19;1613;-46
2023/08/14 11:27:21;;;;;;;;;;;;;;;25.90;56.28;101204.22;7390349;19;1355;-46
2023/08/14 11:29:50;;;;;;;;;;;;;;;25.78;60.83;101161.25;7391070;19;1398;-47
2023/08/14 11:32:19;;;;;;;;;;;;;;;25.64;61.10;101186.28;7391960;19;1443;-46
2023/08/14 11:34:50;;;;;;;;;;;;;;;25.73;60.33;101185.28;7389542;19;1505;-47
2023/08/14 11:37:18;;;;;;;;;;;;;;;25.95;60.23;101191.06;7390216;19;1852;-47
2023/08/14 11:39:46;;;;;;;;;;;;;;;25.79;60.89;101184.59;7389451;19;1355;-47
2023/08/14 11:42:15;;;;;;;;;;;;;;;25.78;60.09;101173.91;7390132;19;1500;-47
2023/08/14 11:44:43;;;;;;;;;;;;;;;25.72;60.05;101178.16;7391368;19;1469;-47
2023/08/14 11:47:12;;;;;;;;;;;;;;;25.64;60.41;101170.03;7390364;19;1481;-47
2023/08/14 11:49:40;;;;;;;;;;;;;;;25.57;60.49;101163.63;7391198;19;1323;-47
2023/08/14 11:52:11;;;;;;;;;;;;;;;25.52;60.71;101149.72;7390946;19;1841;-48
2023/08/14 11:54:39;;;;;;;;;;;;;;;25.52;61.21;101160.56;7390432;19;1673;-47
2023/08/14 11:57:08;;;;;;;;;;;;;;;25.49;61.85;101166.34;7388543;19;1849;-47
2023/08/14 11:59:38;;;;;;;;;;;;;;;25.49;62.08;101161.75;7388220;19;1401;-47
2023/08/14 12:02:06;;;;;;;;;;;;;;;25.51;61.69;101158.88;7389508;19;1406;-47
2023/08/14 12:04:40;;;;;;;;;;;;;;;25.46;61.67;101163.94;7391100;19;1285;-47
2023/08/14 12:07:11;;;;;;;;;;;;;;;25.49;61.50;101140.09;7387406;19;1369;-47
2023/08/14 12:09:40;;;;;;;;;;;;;;;25.56;61.09;101141.09;7386942;19;1502;-47
2023/08/14 12:12:08;;;;;;;;;;;;;;;25.53;61.18;101140.59;7387406;19;1549;-47
2023/08/14 12:14:41;;;;;;;;;;;;;;;25.50;61.30;101146.34;7390150;19;1634;-47
2023/08/14 12:17:10;;;;;;;;;;;;;;;25.53;61.18;101146.03;7389967;19;1855;-47
2023/08/14 12:19:39;;;;;;;;;;;;;;;25.52;61.28;101138.91;7388975;19;2217;-47
2023/08/14 12:22:11;;;;;;;;;;;;;;;25.54;60.94;101134.16;7389658;19;1719;-47
2023/08/14 12:24:40;;;;;;;;;;;;;;;25.51;60.81;101126.41;7387497;19;1575;-47
2023/08/14 12:27:15;;;;;;;;;;;;;;;25.64;59.81;101137.53;7391313;19;1277;-47
2023/08/14 12:29:44;;;;;;;;;;;;;;;25.57;60.01;101123.00;7391597;19;1520;-47
2023/08/14 12:32:12;;;;;;;;;;;;;;;25.55;60.18;101138.56;7392645;19;1434;-47
2023/08/14 12:34:41;;;;;;;;;;;;;;;25.62;60.16;101117.06;7389968;19;1402;-47
2023/08/14 12:37:14;;;;;;;;;;;;;;;25.64;59.78;101109.59;7390776;19;1879;-47
2023/08/14 12:39:43;;;;;;;;;;;;;;;25.65;60.03;101098.63;7390816;19;1399;-47
2023/08/14 12:42:13;;;;;;;;;;;;;;;25.65;59.66;101112.16;7392413;19;1509;-47
2023/08/14 12:44:42;;;;;;;;;;;;;;;25.56;59.79;101103.19;7393307;19;1424;-47
2023/08/14 12:47:10;;;;;;;;;;;;;;;25.59;59.77;101102.00;7391829;19;1400;-47
2023/08/14 12:49:38;;;;;;;;;;;;;;;25.52;59.77;101099.13;7391378;19;1281;-47
2023/08/14 12:52:07;;;;;;;;;;;;;;;25.70;59.25;101104.34;7387927;19;1442;-47
2023/08/14 12:54:38;;;;;;;;;;;;;;;25.53;58.92;101110.81;7391878;19;1693;-47